Etusivu
METAR-TAF:

METAR-TAF

Lentoasemat :

Kairo, Egypti

Kairon kansainvälinen lentoasema

Leveyspiiri: 30-08N, Pituuspiiri: 031-24E, korkeus merenpinnasta: 64 m

Tämänhetkinen sää

Tämä raportti tehtiin 34 minuuttia sitten, kello 18.30 UTC
Tuuli 13 kn pohjoisesta
Lämpötila 29°C
Kosteus 48%
Ilmanpaine 1013 hPa
Näkyvyys 10 km tai enemmän
Hajanaisia pilviä 2500 ft:n korkeudessa

METAR: HECA 231830Z 35013KT 9999 SCT025 29/17 Q1013 NOSIG

Aika: 21:04 (19:04 UTC)

Sääennuste

Tämä raportti tehtiin 2 tuntia ja 4 minuuttia sitten, kello 17.00 UTC
Ennuste voimassa 23. päivästä klo 18 UTC - 24. päivään klo 24 UTC
Tuuli 12 kn pohjoisen/luoteesta
Näkyvyys 10 km tai enemmän
ei pilviä alle 1500 m:ssä eikä cumulonimbus-pilviä
Ajoittain
24. päivästä klo 02 UTC - 24. päivään klo 06 UTC
Tuuli 3 kn eri suunnista

TAF: HECA 231700Z 2318/2424 34012KT CAVOK TEMPO 2402/2406 VRB03KT 4000BR NSC

Säähavainnot ja -ennusteet yli 4000 lentoasemalta (METAR- ja TAF-raportit).

Käytössä olevat sääasemat on merkitty karttaan keltaisilla ja punaisilla pisteillä.

Aseta hiiri pisteen päälle nähdäksesi sääaseman nimen.

Klikkaa sitten nähdäksesi säähavainnot ja -ennusteet.

Kartan vaihtaminen: klikkaa mustalla rastilla varustettuja vihreitä pisteitä, niin voit zoomata sisään; viivalla varustettua vihreää pistettä, niin voit zoomata ulos tai vihreitä nuolia, niin pääset viereisille kartoille.


METAR-TAF: